Terminal Aerodrome Forecast
Issued by NWS

Home | Current Version | Previous Version | Text Only | Print | Product List | Glossary On
Versions: 1 2 3 4 5 6 7 8 9 10 11 12 13 14 15 16
000
FTUS45 KGGW 011700
TAFSDY
TAF
KSDY 011728Z 0118/0218 29016G26KT P6SM BKN022 OVC030
     FM020000 29010KT P6SM SCT060
     FM020500 VRB05KT P6SM SCT080
     FM021400 27013KT P6SM -SHRA OVC050
      AMD LTD TO CLD VIS AND WIND=

USA.gov is the U.S. government's official web portal to all federal, state and local government web resources and services.